createdAt,value
2019-03-08T00:03:05.893Z,9.10
2019-03-08T00:07:59.393Z,9.10
2019-03-08T00:12:53.164Z,9.10
2019-03-08T00:17:46.736Z,9.10
2019-03-08T00:22:40.327Z,9.10
2019-03-08T00:27:33.775Z,9.10
2019-03-08T00:32:27.266Z,9.10
2019-03-08T00:37:20.735Z,9.10
2019-03-08T00:42:14.258Z,9.10
2019-03-08T00:47:07.819Z,9.10
2019-03-08T00:52:01.305Z,9.10
2019-03-08T00:56:54.947Z,9.10
2019-03-08T01:01:48.479Z,9.10
2019-03-08T01:06:41.960Z,9.10
2019-03-08T01:11:35.530Z,9.10
2019-03-08T01:16:29.005Z,9.10
2019-03-08T01:21:22.587Z,9.10
2019-03-08T01:26:16.074Z,9.10
2019-03-08T01:31:09.943Z,9.00
2019-03-08T01:36:03.711Z,9.00
2019-03-08T01:40:57.163Z,8.90
2019-03-08T01:45:50.797Z,8.90
2019-03-08T01:50:44.289Z,8.80
2019-03-08T01:55:38.281Z,8.80
2019-03-08T02:00:31.854Z,8.80
2019-03-08T02:05:25.936Z,8.80
2019-03-08T02:10:19.950Z,8.70
2019-03-08T02:15:14.753Z,8.80
2019-03-08T02:20:10.604Z,8.80
2019-03-08T02:25:04.547Z,8.70
2019-03-08T02:29:58.169Z,8.80
2019-03-08T02:34:51.689Z,8.70
2019-03-08T02:39:45.543Z,8.60
2019-03-08T02:44:39.086Z,8.50
2019-03-08T02:49:32.698Z,8.60
2019-03-08T02:54:26.194Z,8.40
2019-03-08T02:59:19.775Z,8.20
2019-03-08T03:04:13.395Z,8.20
2019-03-08T03:09:07.114Z,8.20
2019-03-08T03:14:00.606Z,8.20
2019-03-08T03:18:54.358Z,8.10
2019-03-08T03:23:47.977Z,8.00
2019-03-08T03:28:41.612Z,8.10
2019-03-08T03:33:35.336Z,8.10
2019-03-08T03:38:28.938Z,8.10
2019-03-08T03:43:22.514Z,8.10
2019-03-08T03:48:15.991Z,8.20
2019-03-08T03:53:09.439Z,8.20
2019-03-08T03:58:02.929Z,8.20
2019-03-08T04:02:56.441Z,8.10
2019-03-08T04:07:49.940Z,8.10
2019-03-08T04:12:43.491Z,8.40
2019-03-08T04:17:37.078Z,8.30
2019-03-08T04:22:30.879Z,7.60
2019-03-08T04:27:24.336Z,7.30
2019-03-08T04:32:17.912Z,7.10
2019-03-08T04:37:11.429Z,7.10
2019-03-08T04:42:05.309Z,6.90
2019-03-08T04:46:58.972Z,7.00
2019-03-08T04:51:52.375Z,7.10
2019-03-08T04:56:47.061Z,7.00
2019-03-08T05:01:40.638Z,6.90
2019-03-08T05:06:34.084Z,6.90
2019-03-08T05:11:28.014Z,6.90
2019-03-08T05:16:21.389Z,6.90
2019-03-08T05:21:14.860Z,6.90
2019-03-08T05:26:08.554Z,7.00
2019-03-08T05:31:02.447Z,6.80
2019-03-08T05:35:56.025Z,6.70
2019-03-08T05:40:49.537Z,6.80
2019-03-08T05:45:43.275Z,6.80
2019-03-08T05:50:36.966Z,6.80
2019-03-08T05:55:30.542Z,6.50
2019-03-08T06:00:31.986Z,6.40
2019-03-08T06:05:21.114Z,6.40
2019-03-08T06:10:34.867Z,6.40
2019-03-08T06:15:28.630Z,6.30
2019-03-08T06:20:22.340Z,6.40
2019-03-08T06:25:15.771Z,6.30
2019-03-08T06:30:09.371Z,6.50
2019-03-08T06:35:03.690Z,6.70
2019-03-08T06:39:59.378Z,6.70
2019-03-08T06:44:52.773Z,7.00
2019-03-08T06:49:46.281Z,7.20
2019-03-08T06:54:39.859Z,7.40
2019-03-08T06:59:42.148Z,7.60
2019-03-08T07:04:35.607Z,7.60
2019-03-08T07:09:29.075Z,7.80
2019-03-08T07:14:22.562Z,7.80
2019-03-08T07:19:16.070Z,7.80
2019-03-08T07:24:19.068Z,7.90
2019-03-08T07:29:30.775Z,8.00
2019-03-08T07:34:42.689Z,8.10
2019-03-08T07:39:54.589Z,8.10
2019-03-08T07:45:09.500Z,8.30
2019-03-08T07:50:09.863Z,8.40
2019-03-08T07:55:42.154Z,8.70
2019-03-08T08:00:55.367Z,9.00
2019-03-08T08:06:08.642Z,9.20
2019-03-08T08:11:27.717Z,9.40
2019-03-08T08:16:47.498Z,9.70
2019-03-08T08:22:09.871Z,9.80
2019-03-08T08:27:25.572Z,10.00
2019-03-08T08:32:33.590Z,10.10
2019-03-08T08:37:38.438Z,10.40
2019-03-08T08:42:57.724Z,10.40
2019-03-08T08:48:15.114Z,10.40
2019-03-08T08:53:31.991Z,10.20
2019-03-08T08:58:47.998Z,10.20
2019-03-08T09:04:07.035Z,10.20
2019-03-08T09:09:24.520Z,11.00
2019-03-08T09:14:25.789Z,11.60
2019-03-08T09:19:37.801Z,11.40
2019-03-08T09:24:54.101Z,11.00
2019-03-08T09:30:06.322Z,10.80
2019-03-08T09:35:22.214Z,10.50
2019-03-08T09:40:42.748Z,10.50
2019-03-08T09:45:56.095Z,10.50
2019-03-08T09:51:09.823Z,10.70
2019-03-08T09:56:30.666Z,10.90
2019-03-08T10:01:55.994Z,10.70
2019-03-08T10:07:07.899Z,10.60
2019-03-08T10:12:16.050Z,11.40
2019-03-08T10:17:47.910Z,11.70
2019-03-08T10:22:59.928Z,12.00
2019-03-08T10:28:04.877Z,12.30
2019-03-08T10:33:10.148Z,12.40
2019-03-08T10:38:22.293Z,12.20
2019-03-08T10:43:25.351Z,12.70
2019-03-08T10:48:25.054Z,13.20
2019-03-08T10:53:30.947Z,13.70
2019-03-08T10:58:56.683Z,13.70
2019-03-08T11:04:09.717Z,13.70
2019-03-08T11:09:21.736Z,14.20
2019-03-08T11:14:33.677Z,14.20
2019-03-08T11:19:45.036Z,14.00
2019-03-08T11:25:07.480Z,13.50
2019-03-08T11:30:19.625Z,13.50
2019-03-08T11:35:42.204Z,13.10
2019-03-08T11:40:55.495Z,13.20
2019-03-08T11:46:10.486Z,12.20
2019-03-08T11:51:29.818Z,12.10
2019-03-08T11:56:37.523Z,12.10
2019-03-08T12:01:59.910Z,11.20
2019-03-08T12:07:07.202Z,10.10
2019-03-08T12:12:19.503Z,10.50
2019-03-08T12:17:35.034Z,11.20
2019-03-08T12:22:54.651Z,11.50
2019-03-08T12:28:04.899Z,11.60
2019-03-08T12:33:21.198Z,12.10
2019-03-08T12:38:31.483Z,11.90
2019-03-08T12:43:39.467Z,11.60
2019-03-08T12:49:04.719Z,11.60
2019-03-08T12:54:24.605Z,12.00
2019-03-08T12:59:36.015Z,12.40
2019-03-08T13:04:49.548Z,12.70
2019-03-08T13:09:49.326Z,12.80
2019-03-08T13:14:43.282Z,12.70
2019-03-08T13:19:37.040Z,12.50
2019-03-08T13:24:30.808Z,12.50
2019-03-08T13:29:25.123Z,12.20
2019-03-08T13:34:18.990Z,12.10
2019-03-08T13:39:12.677Z,12.10
2019-03-08T13:44:06.454Z,12.20
2019-03-08T13:49:00.031Z,12.60
2019-03-08T13:53:54.172Z,12.80
2019-03-08T13:58:48.050Z,12.80
2019-03-08T14:03:42.055Z,13.20
2019-03-08T14:08:35.800Z,13.00
2019-03-08T14:13:29.948Z,13.20
2019-03-08T14:18:23.801Z,13.40
2019-03-08T14:23:17.610Z,13.10
2019-03-08T14:28:11.283Z,13.30
2019-03-08T14:33:05.294Z,13.30
2019-03-08T14:37:59.046Z,13.10
2019-03-08T14:43:05.854Z,13.20
2019-03-08T14:48:00.264Z,13.00
2019-03-08T14:52:55.301Z,13.00
2019-03-08T14:57:49.673Z,13.20
2019-03-08T15:02:47.154Z,13.40
2019-03-08T15:07:41.125Z,13.40
2019-03-08T15:12:37.585Z,13.60
2019-03-08T15:17:30.145Z,13.10
2019-03-08T15:22:23.794Z,13.10
2019-03-08T15:27:17.626Z,13.10
2019-03-08T15:32:11.302Z,13.00
2019-03-08T15:37:04.997Z,12.90
2019-03-08T15:42:02.439Z,12.90
2019-03-08T15:46:55.713Z,12.70
2019-03-08T15:51:50.923Z,12.60
2019-03-08T15:56:44.332Z,12.60
2019-03-08T16:01:38.112Z,12.60
2019-03-08T16:06:31.909Z,12.60
2019-03-08T16:11:25.598Z,12.30
2019-03-08T16:16:19.456Z,12.10
2019-03-08T16:21:14.601Z,12.20
2019-03-08T16:26:08.344Z,12.20
2019-03-08T16:31:12.623Z,11.90
2019-03-08T16:36:31.839Z,11.60
2019-03-08T16:41:44.635Z,11.20
2019-03-08T16:46:51.311Z,10.90
2019-03-08T16:52:06.622Z,10.80
2019-03-08T16:57:18.540Z,10.60
2019-03-08T17:02:30.753Z,10.60
2019-03-08T17:07:55.863Z,10.50
2019-03-08T17:13:11.060Z,10.40
2019-03-08T17:18:10.060Z,10.10
2019-03-08T17:23:23.516Z,10.00
2019-03-08T17:28:33.170Z,9.90
2019-03-08T17:33:55.116Z,9.80
2019-03-08T17:39:17.878Z,9.60
2019-03-08T17:44:34.734Z,9.60
2019-03-08T17:49:41.400Z,9.50
2019-03-08T17:55:09.285Z,9.40
2019-03-08T18:00:28.261Z,9.30
2019-03-08T18:05:50.815Z,9.20
2019-03-08T18:11:02.943Z,9.10
2019-03-08T18:16:16.182Z,9.10
2019-03-08T18:21:29.839Z,9.10
2019-03-08T18:26:33.759Z,9.10
2019-03-08T18:31:40.408Z,9.10
2019-03-08T18:36:56.251Z,9.00
2019-03-08T18:42:07.890Z,9.00
2019-03-08T18:47:16.254Z,8.90
2019-03-08T18:52:31.569Z,8.90
2019-03-08T18:57:44.723Z,8.80
2019-03-08T19:03:07.797Z,8.80
2019-03-08T19:08:31.655Z,8.80
2019-03-08T19:13:32.143Z,8.80
2019-03-08T19:18:57.191Z,8.80
2019-03-08T19:23:59.115Z,8.90
2019-03-08T19:29:10.832Z,8.90
2019-03-08T19:34:32.476Z,8.90
2019-03-08T19:39:48.949Z,8.70
2019-03-08T19:44:50.993Z,8.60
2019-03-08T19:50:02.411Z,8.60
2019-03-08T19:55:18.361Z,8.60
2019-03-08T20:00:31.047Z,8.60
2019-03-08T20:06:05.095Z,8.60
2019-03-08T20:11:24.076Z,8.60
2019-03-08T20:16:29.332Z,8.60
2019-03-08T20:21:36.451Z,8.60
2019-03-08T20:26:49.507Z,8.70
2019-03-08T20:32:05.375Z,8.80
2019-03-08T20:37:12.885Z,8.70
2019-03-08T20:42:27.692Z,8.60
2019-03-08T20:47:24.573Z,8.40
2019-03-08T20:52:18.183Z,8.30
2019-03-08T20:57:11.804Z,8.30
2019-03-08T21:02:05.616Z,8.30
2019-03-08T21:07:04.253Z,8.20
2019-03-08T21:11:57.959Z,8.20
2019-03-08T21:16:51.555Z,8.20
2019-03-08T21:21:45.121Z,8.20
2019-03-08T21:26:38.739Z,8.30
2019-03-08T21:31:32.286Z,8.30
2019-03-08T21:36:26.108Z,8.40
2019-03-08T21:41:19.959Z,8.40
2019-03-08T21:46:13.657Z,8.50
2019-03-08T21:51:07.232Z,8.50
2019-03-08T21:56:02.319Z,8.50
2019-03-08T22:00:56.050Z,8.50
2019-03-08T22:05:49.604Z,8.50
2019-03-08T22:11:05.627Z,8.60
2019-03-08T22:15:59.070Z,8.70
2019-03-08T22:20:52.806Z,8.70
2019-03-08T22:25:46.419Z,8.70
2019-03-08T22:30:40.291Z,8.80
2019-03-08T22:35:33.939Z,8.80
2019-03-08T22:40:27.673Z,8.90
2019-03-08T22:45:21.356Z,8.90
2019-03-08T22:50:15.042Z,8.90
2019-03-08T22:55:09.720Z,8.90
2019-03-08T23:00:03.948Z,8.90
2019-03-08T23:04:57.730Z,8.90
2019-03-08T23:09:51.404Z,8.90
2019-03-08T23:14:45.226Z,9.00
2019-03-08T23:19:38.871Z,9.00
2019-03-08T23:24:32.994Z,9.00
2019-03-08T23:29:33.325Z,9.10
2019-03-08T23:34:27.117Z,9.10
2019-03-08T23:39:20.836Z,9.00
2019-03-08T23:44:14.559Z,9.00
2019-03-08T23:49:08.157Z,9.10
2019-03-08T23:54:03.705Z,9.10
2019-03-08T23:58:57.115Z,9.10
